createdAt,value
2023-02-18T00:01:32.820Z,99688.28
2023-02-18T00:04:01.030Z,99678.50
2023-02-18T00:06:33.174Z,99679.03
2023-02-18T00:09:02.647Z,99688.56
2023-02-18T00:11:33.863Z,99695.03
2023-02-18T00:14:03.323Z,99681.69
2023-02-18T00:16:31.626Z,99678.41
2023-02-18T00:19:01.917Z,99694.16
2023-02-18T00:21:34.765Z,99703.09
2023-02-18T00:24:01.819Z,99695.19
2023-02-18T00:26:28.982Z,99678.88
2023-02-18T00:28:56.094Z,99688.91
2023-02-18T00:31:29.359Z,99678.03
2023-02-18T00:33:58.377Z,99677.25
2023-02-18T00:36:26.998Z,99680.75
2023-02-18T00:38:59.792Z,99676.72
2023-02-18T00:41:29.465Z,99672.06
2023-02-18T00:43:57.056Z,99667.16
2023-02-18T00:46:24.763Z,99665.84
2023-02-18T00:48:51.594Z,99672.38
2023-02-18T00:51:18.728Z,99672.59
2023-02-18T00:53:47.531Z,99673.44
2023-02-18T00:56:14.484Z,99670.41
2023-02-18T00:58:41.277Z,99668.78
2023-02-18T01:01:10.658Z,99666.38
2023-02-18T01:03:40.360Z,99668.78
2023-02-18T01:06:09.126Z,99679.13
2023-02-18T01:08:37.530Z,99677.75
2023-02-18T01:11:05.854Z,99670.69
2023-02-18T01:13:33.156Z,99679.97
2023-02-18T01:16:00.340Z,99655.75
2023-02-18T01:18:28.041Z,99669.88
2023-02-18T01:20:55.095Z,99662.53
2023-02-18T01:23:23.388Z,99663.34
2023-02-18T01:25:50.843Z,99666.06
2023-02-18T01:28:18.699Z,99666.38
2023-02-18T01:30:46.041Z,99669.59
2023-02-18T01:33:12.870Z,99664.75
2023-02-18T01:35:41.281Z,99664.75
2023-02-18T01:38:11.880Z,99663.91
2023-02-18T01:40:48.770Z,99665.00
2023-02-18T01:43:16.197Z,99665.31
2023-02-18T01:46:05.069Z,99659.34
2023-02-18T01:48:43.393Z,99658.84
2023-02-18T01:51:34.961Z,99650.69
2023-02-18T01:54:08.502Z,99643.63
2023-02-18T01:57:10.560Z,99645.00
2023-02-18T01:59:41.264Z,99637.94
2023-02-18T02:02:20.353Z,99629.78
2023-02-18T02:04:48.730Z,99631.41
2023-02-18T02:07:18.829Z,99631.91
2023-02-18T02:09:48.886Z,99631.13
2023-02-18T02:13:09.808Z,99635.47
2023-02-18T02:15:45.441Z,99640.91
2023-02-18T02:18:34.837Z,99636.56
2023-02-18T02:21:34.417Z,99633.53
2023-02-18T02:24:32.359Z,99621.88
2023-02-18T02:27:35.545Z,99623.41
2023-02-18T02:30:36.150Z,99637.53
2023-02-18T02:33:14.792Z,99636.13
2023-02-18T02:36:04.731Z,99627.69
2023-02-18T02:38:54.495Z,99631.22
2023-02-18T02:41:50.434Z,99626.59
2023-02-18T02:44:49.514Z,99639.63
2023-02-18T02:47:45.236Z,99618.44
2023-02-18T02:50:35.409Z,99613.78
2023-02-18T02:53:17.281Z,99619.22
2023-02-18T02:55:44.018Z,99611.38
2023-02-18T02:58:17.304Z,99597.25
2023-02-18T03:01:02.228Z,99613.06
2023-02-18T03:03:37.896Z,99594.03
2023-02-18T03:06:29.632Z,99592.41
2023-02-18T03:09:15.193Z,99599.75
2023-02-18T03:11:58.523Z,99592.69
2023-02-18T03:14:44.562Z,99581.53
2023-02-18T03:17:30.271Z,99571.75
2023-02-18T03:20:28.389Z,99574.16
2023-02-18T03:23:00.110Z,99570.66
2023-02-18T03:25:28.575Z,99569.03
2023-02-18T03:28:12.352Z,99553.50
2023-02-18T03:30:48.130Z,99561.38
2023-02-18T03:33:25.206Z,99559.75
2023-02-18T03:35:54.698Z,99546.94
2023-02-18T03:38:42.284Z,99551.03
2023-02-18T03:41:09.170Z,99552.13
2023-02-18T03:43:36.103Z,99553.22
2023-02-18T03:46:03.798Z,99559.47
2023-02-18T03:48:30.575Z,99558.34
2023-02-18T03:50:57.353Z,99559.69
2023-02-18T03:53:24.123Z,99555.34
2023-02-18T03:55:50.853Z,99559.19
2023-02-18T03:58:17.684Z,99559.69
2023-02-18T04:00:45.369Z,99547.19
2023-02-18T04:03:12.099Z,99548.81
2023-02-18T04:05:38.873Z,99547.47
2023-02-18T04:08:05.700Z,99541.25
2023-02-18T04:10:32.468Z,99547.47
2023-02-18T04:12:59.447Z,99545.56
2023-02-18T04:15:26.324Z,99540.13
2023-02-18T04:17:53.412Z,99547.19
2023-02-18T04:20:20.166Z,99551.53
2023-02-18T04:22:47.159Z,99547.78
2023-02-18T04:25:13.978Z,99550.50
2023-02-18T04:27:40.756Z,99555.94
2023-02-18T04:30:08.278Z,99557.03
2023-02-18T04:32:35.236Z,99550.19
2023-02-18T04:35:02.111Z,99552.91
2023-02-18T04:37:29.053Z,99543.66
2023-02-18T04:39:55.941Z,99537.09
2023-02-18T04:42:23.499Z,99540.66
2023-02-18T04:44:50.270Z,99537.94
2023-02-18T04:47:17.065Z,99543.06
2023-02-18T04:49:43.852Z,99548.81
2023-02-18T04:52:10.624Z,99545.78
2023-02-18T04:54:37.451Z,99549.34
2023-02-18T04:57:04.594Z,99542.78
2023-02-18T04:59:31.726Z,99552.84
2023-02-18T05:01:58.658Z,99550.66
2023-02-18T05:04:28.744Z,99548.44
2023-02-18T05:06:55.610Z,99543.00
2023-02-18T05:09:23.047Z,99534.03
2023-02-18T05:11:50.096Z,99528.59
2023-02-18T05:14:17.635Z,99532.44
2023-02-18T05:16:44.495Z,99535.72
2023-02-18T05:19:15.679Z,99535.22
2023-02-18T05:21:45.811Z,99538.22
2023-02-18T05:24:12.886Z,99536.31
2023-02-18T05:26:40.126Z,99524.34
2023-02-18T05:29:06.898Z,99522.91
2023-02-18T05:31:34.047Z,99525.38
2023-02-18T05:34:00.948Z,99517.78
2023-02-18T05:36:27.757Z,99521.63
2023-02-18T05:38:54.662Z,99519.69
2023-02-18T05:41:21.751Z,99527.56
2023-02-18T05:44:06.956Z,99541.69
2023-02-18T05:46:34.200Z,99520.44
2023-02-18T05:49:01.136Z,99524.25
2023-02-18T05:51:30.610Z,99512.88
2023-02-18T05:53:57.553Z,99511.25
2023-02-18T05:56:24.319Z,99502.56
2023-02-18T05:58:51.134Z,99499.03
2023-02-18T06:01:18.159Z,99505.28
2023-02-18T06:03:45.026Z,99497.72
2023-02-18T06:06:14.873Z,99501.53
2023-02-18T06:08:41.751Z,99514.03
2023-02-18T06:11:08.537Z,99505.88
2023-02-18T06:13:35.511Z,99507.69
2023-02-18T06:16:02.485Z,99508.53
2023-02-18T06:18:29.905Z,99506.09
2023-02-18T06:20:56.716Z,99518.59
2023-02-18T06:23:23.537Z,99507.69
2023-02-18T06:25:50.941Z,99513.97
2023-02-18T06:28:18.498Z,99512.88
2023-02-18T06:30:46.179Z,99511.53
2023-02-18T06:33:13.313Z,99506.59
2023-02-18T06:35:40.118Z,99504.69
2023-02-18T06:38:07.140Z,99506.00
2023-02-18T06:40:34.324Z,99509.84
2023-02-18T06:43:01.098Z,99505.22
2023-02-18T06:45:27.942Z,99504.13
2023-02-18T06:47:54.875Z,99504.13
2023-02-18T06:50:21.769Z,99492.13
2023-02-18T06:52:48.552Z,99502.69
2023-02-18T06:55:18.488Z,99511.69
2023-02-18T06:57:45.287Z,99514.09
2023-02-18T07:00:12.685Z,99513.31
2023-02-18T07:02:39.529Z,99502.13
2023-02-18T07:05:06.618Z,99492.84
2023-02-18T07:07:33.750Z,99492.84
2023-02-18T07:10:00.555Z,99483.91
2023-02-18T07:12:27.798Z,99494.19
2023-02-18T07:14:54.740Z,99485.13
2023-02-18T07:17:21.717Z,99482.91
2023-02-18T07:19:48.506Z,99469.03
2023-02-18T07:22:15.296Z,99478.00
2023-02-18T07:24:42.498Z,99471.69
2023-02-18T07:27:09.480Z,99473.28
2023-02-18T07:29:36.340Z,99471.59
2023-02-18T07:32:03.173Z,99473.72
2023-02-18T07:34:30.014Z,99465.78
2023-02-18T07:36:56.897Z,99475.56
2023-02-18T07:39:23.645Z,99477.47
2023-02-18T07:41:50.441Z,99466.28
2023-02-18T07:44:17.294Z,99480.09
2023-02-18T07:46:46.597Z,99463.69
2023-02-18T07:49:14.671Z,99467.75
2023-02-18T07:51:41.518Z,99472.88
2023-02-18T07:54:08.846Z,99474.50
2023-02-18T07:56:35.727Z,99488.09
2023-02-18T07:59:08.764Z,99465.22
2023-02-18T08:01:44.997Z,99473.38
2023-02-18T08:04:12.442Z,99459.78
2023-02-18T08:06:48.169Z,99471.16
2023-02-18T08:09:18.168Z,99480.97
2023-02-18T08:11:45.082Z,99486.91
2023-02-18T08:14:12.205Z,99485.81
2023-02-18T08:16:39.791Z,99468.59
2023-02-18T08:19:07.860Z,99481.88
2023-02-18T08:21:34.942Z,99463.34
2023-02-18T08:24:02.390Z,99466.88
2023-02-18T08:26:29.766Z,99458.91
2023-02-18T08:28:56.894Z,99463.16
2023-02-18T08:31:30.600Z,99445.59
2023-02-18T08:34:00.421Z,99461.06
2023-02-18T08:36:28.302Z,99458.03
2023-02-18T08:38:55.215Z,99445.22
2023-02-18T08:41:22.108Z,99468.41
2023-02-18T08:43:49.422Z,99473.97
2023-02-18T08:46:27.163Z,99467.81
2023-02-18T08:49:03.891Z,99453.59
2023-02-18T08:51:31.670Z,99439.56
2023-02-18T08:54:02.416Z,99457.34
2023-02-18T08:56:29.446Z,99450.69
2023-02-18T08:58:56.209Z,99450.81
2023-02-18T09:01:27.731Z,99440.81
2023-02-18T09:03:54.634Z,99439.94
2023-02-18T09:06:21.699Z,99437.59
2023-02-18T09:08:48.731Z,99442.00
2023-02-18T09:11:16.255Z,99435.75
2023-02-18T09:13:43.347Z,99439.00
2023-02-18T09:16:20.701Z,99445.25
2023-02-18T09:18:49.388Z,99440.09
2023-02-18T09:21:20.722Z,99429.59
2023-02-18T09:23:47.839Z,99432.16
2023-02-18T09:26:17.915Z,99456.78
2023-02-18T09:28:45.142Z,99436.38
2023-02-18T09:31:18.915Z,99441.03
2023-02-18T09:33:57.032Z,99431.75
2023-02-18T09:36:24.084Z,99438.50
2023-02-18T09:38:51.379Z,99455.47
2023-02-18T09:41:57.087Z,99458.69
2023-02-18T09:44:35.992Z,99447.06
2023-02-18T09:47:35.804Z,99437.38
2023-02-18T09:50:29.275Z,99458.69
2023-02-18T09:53:00.201Z,99433.22
2023-02-18T09:55:41.157Z,99436.44
2023-02-18T09:58:16.190Z,99428.38
2023-02-18T10:00:50.884Z,99424.25
2023-02-18T10:03:25.150Z,99432.84
2023-02-18T10:06:01.691Z,99422.25
2023-02-18T10:08:39.833Z,99427.69
2023-02-18T10:11:17.662Z,99425.28
2023-02-18T10:13:45.468Z,99440.22
2023-02-18T10:16:18.947Z,99434.25
2023-02-18T10:18:53.921Z,99445.66
2023-02-18T10:21:38.338Z,99448.00
2023-02-18T10:24:30.688Z,99455.34
2023-02-18T10:26:58.878Z,99439.50
2023-02-18T10:29:27.612Z,99470.50
2023-02-18T10:32:35.482Z,99464.66
2023-02-18T10:35:19.973Z,99470.09
2023-02-18T10:38:37.399Z,99460.81
2023-02-18T10:41:39.814Z,99461.63
2023-02-18T10:44:43.095Z,99466.28
2023-02-18T10:47:38.117Z,99446.59
2023-02-18T10:50:29.155Z,99447.88
2023-02-18T10:53:01.713Z,99435.88
2023-02-18T10:55:49.358Z,99440.44
2023-02-18T10:58:43.355Z,99436.47
2023-02-18T11:01:21.666Z,99430.31
2023-02-18T11:03:52.798Z,99435.25
2023-02-18T11:06:46.302Z,99433.47
2023-02-18T11:09:34.498Z,99433.97
2023-02-18T11:12:19.048Z,99426.09
2023-02-18T11:15:05.148Z,99418.59
2023-02-18T11:17:34.934Z,99432.09
2023-02-18T11:20:31.720Z,99411.13
2023-02-18T11:23:21.826Z,99428.88
2023-02-18T11:26:01.925Z,99407.38
2023-02-18T11:28:31.140Z,99401.97
2023-02-18T11:31:02.712Z,99403.97
2023-02-18T11:33:41.481Z,99409.66
2023-02-18T11:36:25.015Z,99397.25
2023-02-18T11:39:04.684Z,99416.06
2023-02-18T11:41:43.955Z,99418.59
2023-02-18T11:44:33.605Z,99427.28
2023-02-18T11:47:35.643Z,99421.63
2023-02-18T11:50:08.092Z,99415.84
2023-02-18T11:52:38.355Z,99414.56
2023-02-18T11:55:15.633Z,99424.84
2023-02-18T11:58:00.934Z,99417.69
2023-02-18T12:00:49.336Z,99409.56
2023-02-18T12:04:07.824Z,99390.59
2023-02-18T12:06:52.950Z,99385.06
2023-02-18T12:09:31.892Z,99392.16
2023-02-18T12:12:16.090Z,99388.81
2023-02-18T12:14:44.417Z,99406.06
2023-02-18T12:17:26.579Z,99379.78
2023-02-18T12:20:23.807Z,99372.22
2023-02-18T12:23:16.906Z,99377.97
2023-02-18T12:26:34.071Z,99370.09
2023-02-18T12:29:44.000Z,99365.84
2023-02-18T12:32:33.096Z,99361.78
2023-02-18T12:35:12.012Z,99363.69
2023-02-18T12:37:59.942Z,99392.56
2023-02-18T12:41:09.523Z,99355.19
2023-02-18T12:44:19.040Z,99361.44
2023-02-18T12:47:21.789Z,99354.25
2023-02-18T12:50:34.995Z,99352.59
2023-02-18T12:53:35.975Z,99342.72
2023-02-18T12:56:50.077Z,99352.88
2023-02-18T12:59:50.933Z,99352.50
2023-02-18T13:02:42.006Z,99353.25
2023-02-18T13:05:33.535Z,99362.66
2023-02-18T13:08:30.374Z,99361.66
2023-02-18T13:11:19.406Z,99370.72
2023-02-18T13:14:16.491Z,99344.28
2023-02-18T13:16:48.858Z,99353.59
2023-02-18T13:19:43.183Z,99338.53
2023-02-18T13:22:14.656Z,99336.63
2023-02-18T13:24:47.728Z,99345.06
2023-02-18T13:27:33.697Z,99333.34
2023-02-18T13:30:33.865Z,99337.78
2023-02-18T13:33:32.655Z,99332.72
2023-02-18T13:36:31.550Z,99336.97
2023-02-18T13:39:20.338Z,99336.91
2023-02-18T13:41:51.774Z,99325.50
2023-02-18T13:44:22.345Z,99337.97
2023-02-18T13:46:59.338Z,99337.06
2023-02-18T13:49:40.099Z,99334.06
2023-02-18T13:52:18.140Z,99333.78
2023-02-18T13:54:47.049Z,99332.94
2023-02-18T13:57:26.815Z,99314.28
2023-02-18T14:00:02.842Z,99321.53
2023-02-18T14:02:36.607Z,99309.50
2023-02-18T14:05:20.388Z,99321.88
2023-02-18T14:08:11.507Z,99321.84
2023-02-18T14:10:39.780Z,99319.28
2023-02-18T14:13:37.855Z,99307.69
2023-02-18T14:16:04.733Z,99317.00
2023-02-18T14:18:38.563Z,99309.25
2023-02-18T14:21:22.585Z,99299.97
2023-02-18T14:24:04.116Z,99320.22
2023-02-18T14:26:47.101Z,99307.53
2023-02-18T14:29:31.501Z,99310.34
2023-02-18T14:32:09.917Z,99323.59
2023-02-18T14:35:21.712Z,99301.06
2023-02-18T14:38:27.598Z,99326.03
2023-02-18T14:41:30.043Z,99326.34
2023-02-18T14:44:14.839Z,99322.34
2023-02-18T14:47:34.032Z,99316.50
2023-02-18T14:50:10.607Z,99321.41
2023-02-18T14:52:53.174Z,99324.00
2023-02-18T14:55:29.909Z,99323.00
2023-02-18T14:58:05.861Z,99307.75
2023-02-18T15:00:41.095Z,99318.38
2023-02-18T15:03:17.053Z,99312.03
2023-02-18T15:05:45.527Z,99312.66
2023-02-18T15:08:26.007Z,99320.91
2023-02-18T15:11:00.830Z,99309.19
2023-02-18T15:13:38.263Z,99325.22
2023-02-18T15:16:34.057Z,99326.84
2023-02-18T15:19:13.527Z,99328.09
2023-02-18T15:21:45.736Z,99349.31
2023-02-18T15:24:31.859Z,99319.88
2023-02-18T15:27:18.940Z,99329.91
2023-02-18T15:30:00.739Z,99330.19
2023-02-18T15:32:29.483Z,99331.63
2023-02-18T15:35:03.567Z,99323.34
2023-02-18T15:37:31.702Z,99327.06
2023-02-18T15:39:58.800Z,99319.09
2023-02-18T15:42:31.833Z,99330.63
2023-02-18T15:45:15.821Z,99332.91
2023-02-18T15:47:45.391Z,99326.16
2023-02-18T15:50:22.758Z,99326.38
2023-02-18T15:52:51.699Z,99319.09
2023-02-18T15:55:35.408Z,99315.88
2023-02-18T15:58:11.423Z,99315.38
2023-02-18T16:00:50.223Z,99320.63
2023-02-18T16:03:26.094Z,99320.34
2023-02-18T16:06:12.702Z,99317.72
2023-02-18T16:08:41.060Z,99321.03
2023-02-18T16:11:13.368Z,99319.44
2023-02-18T16:13:49.444Z,99311.25
2023-02-18T16:16:33.784Z,99321.31
2023-02-18T16:19:02.107Z,99316.59
2023-02-18T16:21:44.809Z,99314.97
2023-02-18T16:24:29.399Z,99317.50
2023-02-18T16:27:01.287Z,99319.72
2023-02-18T16:29:41.846Z,99316.28
2023-02-18T16:32:09.193Z,99313.03
2023-02-18T16:34:36.663Z,99305.56
2023-02-18T16:37:22.420Z,99314.63
2023-02-18T16:39:54.455Z,99315.16
2023-02-18T16:42:21.864Z,99319.78
2023-02-18T16:44:52.860Z,99322.38
2023-02-18T16:47:20.738Z,99319.25
2023-02-18T16:49:51.250Z,99326.59
2023-02-18T16:52:19.368Z,99328.50
2023-02-18T16:54:48.143Z,99326.88
2023-02-18T16:57:15.187Z,99331.03
2023-02-18T16:59:42.027Z,99353.38
2023-02-18T17:02:22.451Z,99328.91
2023-02-18T17:04:49.318Z,99331.03
2023-02-18T17:07:16.497Z,99336.47
2023-02-18T17:09:44.785Z,99337.34
2023-02-18T17:12:12.874Z,99336.06
2023-02-18T17:14:40.228Z,99334.44
2023-02-18T17:17:14.024Z,99343.78
2023-02-18T17:19:40.914Z,99350.84
2023-02-18T17:22:07.789Z,99348.91
2023-02-18T17:24:34.716Z,99353.84
2023-02-18T17:27:03.573Z,99366.13
2023-02-18T17:29:30.585Z,99358.06
2023-02-18T17:31:58.368Z,99365.47
2023-02-18T17:34:31.064Z,99368.19
2023-02-18T17:36:58.567Z,99365.97
2023-02-18T17:39:32.640Z,99366.88
2023-02-18T17:41:59.559Z,99378.03
2023-02-18T17:44:27.749Z,99374.53
2023-02-18T17:46:55.410Z,99383.91
2023-02-18T17:49:23.170Z,99372.22
2023-02-18T17:51:58.148Z,99378.25
2023-02-18T17:54:28.184Z,99384.47
2023-02-18T17:56:56.013Z,99376.91
2023-02-18T17:59:28.859Z,99386.91
2023-02-18T18:01:56.051Z,99383.91
2023-02-18T18:04:23.249Z,99378.75
2023-02-18T18:06:59.770Z,99384.25
2023-02-18T18:09:31.098Z,99388.09
2023-02-18T18:11:58.812Z,99390.50
2023-02-18T18:14:25.827Z,99394.25
2023-02-18T18:16:52.983Z,99388.69
2023-02-18T18:19:20.102Z,99396.59
2023-02-18T18:21:50.861Z,99401.50
2023-02-18T18:24:17.675Z,99397.19
2023-02-18T18:26:44.428Z,99410.75
2023-02-18T18:29:11.481Z,99414.59
2023-02-18T18:31:38.545Z,99422.75
2023-02-18T18:34:06.000Z,99416.50
2023-02-18T18:36:33.352Z,99417.38
2023-02-18T18:39:00.429Z,99414.97
2023-02-18T18:41:27.414Z,99419.56
2023-02-18T18:43:54.399Z,99421.78
2023-02-18T18:46:22.719Z,99425.59
2023-02-18T18:48:51.933Z,99420.16
2023-02-18T18:51:32.610Z,99423.44
2023-02-18T18:54:00.044Z,99425.91
2023-02-18T18:56:27.887Z,99438.66
2023-02-18T18:58:55.533Z,99437.03
2023-02-18T19:01:30.245Z,99446.81
2023-02-18T19:03:57.245Z,99447.44
2023-02-18T19:06:26.846Z,99430.09
2023-02-18T19:08:53.829Z,99437.81
2023-02-18T19:11:20.789Z,99424.59
2023-02-18T19:13:48.702Z,99429.44
2023-02-18T19:16:20.643Z,99425.38
2023-02-18T19:18:48.567Z,99427.34
2023-02-18T19:21:16.570Z,99431.16
2023-02-18T19:23:43.523Z,99437.69
2023-02-18T19:26:11.461Z,99438.59
2023-02-18T19:28:38.803Z,99429.63
2023-02-18T19:31:11.137Z,99437.84
2023-02-18T19:33:46.762Z,99436.78
2023-02-18T19:36:14.741Z,99436.50
2023-02-18T19:38:42.051Z,99433.34
2023-02-18T19:41:14.653Z,99433.38
2023-02-18T19:43:43.977Z,99429.09
2023-02-18T19:46:14.569Z,99435.09
2023-02-18T19:48:42.336Z,99438.38
2023-02-18T19:51:10.181Z,99432.44
2023-02-18T19:53:37.754Z,99439.56
2023-02-18T19:56:08.503Z,99424.38
2023-02-18T19:58:37.372Z,99423.03
2023-02-18T20:01:04.731Z,99426.00
2023-02-18T20:03:31.575Z,99423.84
2023-02-18T20:05:58.458Z,99429.84
2023-02-18T20:08:25.293Z,99424.75
2023-02-18T20:10:59.682Z,99419.78
2023-02-18T20:13:27.361Z,99426.84
2023-02-18T20:15:54.651Z,99428.75
2023-02-18T20:18:22.305Z,99439.63
2023-02-18T20:20:52.382Z,99436.94
2023-02-18T20:23:19.916Z,99435.31
2023-02-18T20:25:48.720Z,99447.81
2023-02-18T20:28:16.367Z,99433.94
2023-02-18T20:30:44.152Z,99437.16
2023-02-18T20:33:11.230Z,99442.38
2023-02-18T20:35:38.694Z,99428.25
2023-02-18T20:38:05.651Z,99439.63
2023-02-18T20:40:32.585Z,99438.22
2023-02-18T20:42:59.432Z,99446.75
2023-02-18T20:45:26.608Z,99434.28
2023-02-18T20:47:53.369Z,99426.69
2023-02-18T20:50:21.751Z,99426.69
2023-02-18T20:52:48.606Z,99427.78
2023-02-18T20:55:15.492Z,99428.06
2023-02-18T20:57:42.527Z,99428.34
2023-02-18T21:00:10.400Z,99436.50
2023-02-18T21:02:37.227Z,99435.47
2023-02-18T21:05:04.223Z,99432.75
2023-02-18T21:07:31.006Z,99443.91
2023-02-18T21:09:57.770Z,99436.31
2023-02-18T21:12:24.652Z,99439.59
2023-02-18T21:14:51.481Z,99432.81
2023-02-18T21:17:18.270Z,99442.06
2023-02-18T21:19:45.062Z,99438.81
2023-02-18T21:22:11.860Z,99451.84
2023-02-18T21:24:38.692Z,99437.78
2023-02-18T21:27:05.485Z,99441.91
2023-02-18T21:29:32.350Z,99432.72
2023-02-18T21:31:59.359Z,99434.63
2023-02-18T21:34:26.380Z,99439.53
2023-02-18T21:36:53.121Z,99436.03
2023-02-18T21:39:19.948Z,99432.50
2023-02-18T21:41:47.089Z,99418.97
2023-02-18T21:44:13.884Z,99417.06
2023-02-18T21:46:40.959Z,99423.59
2023-02-18T21:49:10.568Z,99423.63
2023-02-18T21:52:18.984Z,99427.72
2023-02-18T21:54:45.855Z,99429.88
2023-02-18T21:57:16.995Z,99425.56
2023-02-18T21:59:45.483Z,99425.56
2023-02-18T22:02:21.799Z,99419.06
2023-02-18T22:04:51.063Z,99414.19
2023-02-18T22:07:20.200Z,99415.53
2023-02-18T22:09:48.797Z,99406.66
2023-02-18T22:12:17.312Z,99411.75
2023-02-18T22:14:44.746Z,99416.09
2023-02-18T22:17:11.983Z,99408.25
2023-02-18T22:19:39.208Z,99406.66
2023-02-18T22:22:06.105Z,99396.63
2023-02-18T22:24:33.496Z,99398.25
2023-02-18T22:27:01.489Z,99394.47
2023-02-18T22:29:30.265Z,99393.69
2023-02-18T22:31:57.257Z,99394.22
2023-02-18T22:34:25.918Z,99391.22
2023-02-18T22:36:52.645Z,99390.47
2023-02-18T22:39:19.806Z,99385.59
2023-02-18T22:41:47.742Z,99385.88
2023-02-18T22:44:17.232Z,99379.91
2023-02-18T22:46:44.682Z,99377.44
2023-02-18T22:49:14.393Z,99375.00
2023-02-18T22:51:44.164Z,99384.50
2023-02-18T22:54:15.555Z,99380.97
2023-02-18T22:56:45.541Z,99377.72
2023-02-18T22:59:15.933Z,99376.66
2023-02-18T23:01:51.122Z,99381.50
2023-02-18T23:04:20.343Z,99381.81
2023-02-18T23:06:49.144Z,99369.38
2023-02-18T23:09:22.399Z,99377.47
2023-02-18T23:11:51.727Z,99371.53
2023-02-18T23:14:19.709Z,99371.25
2023-02-18T23:17:15.875Z,99365.28
2023-02-18T23:19:52.139Z,99363.94
2023-02-18T23:22:41.752Z,99361.47
2023-02-18T23:25:08.880Z,99350.91
2023-02-18T23:27:35.865Z,99351.47
2023-02-18T23:30:03.132Z,99357.94
2023-02-18T23:32:30.978Z,99357.94
2023-02-18T23:34:57.805Z,99350.34
2023-02-18T23:37:44.673Z,99355.78
2023-02-18T23:40:13.942Z,99354.16
2023-02-18T23:42:40.888Z,99353.09
2023-02-18T23:45:08.266Z,99352.03
2023-02-18T23:47:35.119Z,99350.97
2023-02-18T23:50:01.973Z,99356.34
2023-02-18T23:52:29.056Z,99347.97
2023-02-18T23:54:58.439Z,99358.53
2023-02-18T23:57:25.221Z,99358.00
2023-02-18T23:59:52.473Z,99352.59
